createdAt,value
2023-05-05T00:01:24.257Z,11.26
2023-05-05T00:03:50.825Z,11.20
2023-05-05T00:06:17.405Z,11.18
2023-05-05T00:08:44.206Z,11.16
2023-05-05T00:11:10.673Z,11.10
2023-05-05T00:13:38.619Z,11.06
2023-05-05T00:16:05.919Z,11.08
2023-05-05T00:18:33.763Z,11.03
2023-05-05T00:21:00.171Z,11.03
2023-05-05T00:23:27.987Z,11.11
2023-05-05T00:25:54.753Z,10.94
2023-05-05T00:28:21.212Z,10.92
2023-05-05T00:30:47.818Z,10.75
2023-05-05T00:33:14.522Z,10.72
2023-05-05T00:35:41.066Z,10.56
2023-05-05T00:38:07.551Z,10.39
2023-05-05T00:40:33.983Z,10.36
2023-05-05T00:43:00.451Z,10.38
2023-05-05T00:45:27.508Z,10.24
2023-05-05T00:47:57.351Z,10.20
2023-05-05T00:50:29.265Z,10.16
2023-05-05T00:53:02.295Z,10.22
2023-05-05T00:55:30.124Z,10.10
2023-05-05T00:57:57.988Z,10.12
2023-05-05T01:00:25.018Z,10.05
2023-05-05T01:02:52.536Z,10.08
2023-05-05T01:05:21.668Z,10.01
2023-05-05T01:08:02.886Z,10.13
2023-05-05T01:10:45.293Z,10.06
2023-05-05T01:13:42.670Z,10.01
2023-05-05T01:16:18.261Z,10.03
2023-05-05T01:18:53.830Z,10.04
2023-05-05T01:21:33.685Z,10.02
2023-05-05T01:24:18.864Z,10.03
2023-05-05T01:27:45.332Z,10.00
2023-05-05T01:30:39.845Z,10.02
2023-05-05T01:33:09.987Z,9.94
2023-05-05T01:35:42.010Z,9.89
2023-05-05T01:38:14.993Z,9.94
2023-05-05T01:40:46.947Z,9.89
2023-05-05T01:43:18.215Z,9.77
2023-05-05T01:45:48.585Z,9.88
2023-05-05T01:48:18.878Z,9.85
2023-05-05T01:50:48.191Z,9.85
2023-05-05T01:53:17.607Z,9.85
2023-05-05T01:55:46.866Z,9.89
2023-05-05T01:58:16.231Z,9.85
2023-05-05T02:00:44.240Z,9.77
2023-05-05T02:03:13.807Z,9.80
2023-05-05T02:05:42.314Z,9.79
2023-05-05T02:08:11.008Z,9.76
2023-05-05T02:10:40.836Z,9.75
2023-05-05T02:13:12.437Z,9.69
2023-05-05T02:15:40.486Z,9.69
2023-05-05T02:18:07.587Z,9.68
2023-05-05T02:20:37.275Z,9.70
2023-05-05T02:23:05.739Z,9.75
2023-05-05T02:25:38.252Z,9.54
2023-05-05T02:28:11.147Z,9.59
2023-05-05T02:30:39.021Z,9.56
2023-05-05T02:33:11.238Z,9.56
2023-05-05T02:35:42.284Z,9.57
2023-05-05T02:38:17.622Z,9.56
2023-05-05T02:40:49.660Z,9.52
2023-05-05T02:43:19.549Z,9.55
2023-05-05T02:45:47.008Z,9.60
2023-05-05T02:48:14.930Z,9.43
2023-05-05T02:50:42.561Z,9.50
2023-05-05T02:53:26.796Z,9.36
2023-05-05T02:56:01.678Z,9.27
2023-05-05T02:58:46.337Z,9.26
2023-05-05T03:01:33.222Z,9.30
2023-05-05T03:04:06.086Z,9.36
2023-05-05T03:06:46.311Z,9.27
2023-05-05T03:09:26.333Z,9.28
2023-05-05T03:12:09.723Z,9.21
2023-05-05T03:14:48.928Z,9.21
2023-05-05T03:17:18.555Z,9.21
2023-05-05T03:19:46.666Z,9.20
2023-05-05T03:22:13.605Z,9.18
2023-05-05T03:24:50.007Z,9.18
2023-05-05T03:27:17.522Z,9.21
2023-05-05T03:29:44.199Z,9.24
2023-05-05T03:32:14.037Z,9.11
2023-05-05T03:34:41.617Z,9.09
2023-05-05T03:37:08.634Z,9.10
2023-05-05T03:39:36.599Z,9.10
2023-05-05T03:42:03.525Z,9.23
2023-05-05T03:44:32.406Z,9.12
2023-05-05T03:46:58.959Z,9.03
2023-05-05T03:49:26.722Z,8.97
2023-05-05T03:51:53.649Z,9.02
2023-05-05T03:54:20.117Z,9.08
2023-05-05T03:56:46.655Z,9.06
2023-05-05T03:59:13.165Z,9.01
2023-05-05T04:01:39.564Z,9.08
2023-05-05T04:04:06.107Z,9.09
2023-05-05T04:06:32.613Z,9.13
2023-05-05T04:08:59.120Z,9.11
2023-05-05T04:11:26.206Z,9.11
2023-05-05T04:13:53.638Z,9.13
2023-05-05T04:16:20.235Z,9.08
2023-05-05T04:18:47.546Z,9.12
2023-05-05T04:21:14.111Z,9.01
2023-05-05T04:23:40.917Z,9.08
2023-05-05T04:26:07.605Z,9.16
2023-05-05T04:28:34.210Z,9.09
2023-05-05T04:31:01.339Z,9.03
2023-05-05T04:33:30.672Z,9.08
2023-05-05T04:35:57.176Z,9.13
2023-05-05T04:38:24.015Z,9.20
2023-05-05T04:40:50.949Z,9.23
2023-05-05T04:43:17.490Z,9.26
2023-05-05T04:45:54.834Z,9.28
2023-05-05T04:48:24.198Z,9.43
2023-05-05T04:50:51.541Z,9.45
2023-05-05T04:53:18.194Z,9.62
2023-05-05T04:55:44.920Z,9.62
2023-05-05T04:58:11.417Z,9.70
2023-05-05T05:00:38.413Z,9.76
2023-05-05T05:03:05.009Z,9.90
2023-05-05T05:05:31.490Z,9.98
2023-05-05T05:07:58.112Z,9.98
2023-05-05T05:10:24.514Z,10.01
2023-05-05T05:12:51.268Z,9.96
2023-05-05T05:15:17.694Z,9.95
2023-05-05T05:17:44.650Z,10.10
2023-05-05T05:20:12.397Z,10.16
2023-05-05T05:22:39.278Z,10.21
2023-05-05T05:25:10.349Z,10.33
2023-05-05T05:27:36.966Z,10.29
2023-05-05T05:30:03.643Z,10.38
2023-05-05T05:32:31.952Z,10.34
2023-05-05T05:34:58.859Z,10.48
2023-05-05T05:37:28.904Z,10.47
2023-05-05T05:39:56.981Z,10.50
2023-05-05T05:42:25.921Z,10.42
2023-05-05T05:44:52.891Z,10.47
2023-05-05T05:47:19.472Z,10.58
2023-05-05T05:49:46.009Z,10.65
2023-05-05T05:52:12.616Z,10.78
2023-05-05T05:54:39.567Z,10.98
2023-05-05T05:57:07.139Z,11.18
2023-05-05T05:59:33.707Z,11.19
2023-05-05T06:02:00.378Z,11.26
2023-05-05T06:04:27.183Z,11.21
2023-05-05T06:06:54.584Z,11.16
2023-05-05T06:09:21.158Z,11.22
2023-05-05T06:11:47.594Z,11.30
2023-05-05T06:14:14.133Z,11.43
2023-05-05T06:16:40.684Z,11.53
2023-05-05T06:19:11.157Z,11.47
2023-05-05T06:21:38.264Z,11.54
2023-05-05T06:24:04.984Z,11.45
2023-05-05T06:26:32.387Z,11.44
2023-05-05T06:28:58.797Z,11.51
2023-05-05T06:31:25.631Z,11.49
2023-05-05T06:33:52.099Z,11.68
2023-05-05T06:36:18.609Z,11.58
2023-05-05T06:38:45.338Z,11.63
2023-05-05T06:41:11.900Z,11.81
2023-05-05T06:43:38.574Z,11.86
2023-05-05T06:46:10.023Z,11.88
2023-05-05T06:48:36.781Z,12.03
2023-05-05T06:51:04.835Z,12.11
2023-05-05T06:53:31.217Z,12.25
2023-05-05T06:55:58.009Z,12.30
2023-05-05T06:58:24.409Z,12.45
2023-05-05T07:00:50.843Z,12.55
2023-05-05T07:03:17.367Z,12.50
2023-05-05T07:05:44.095Z,12.45
2023-05-05T07:08:11.443Z,12.45
2023-05-05T07:10:38.151Z,12.53
2023-05-05T07:13:04.960Z,12.63
2023-05-05T07:15:31.502Z,12.81
2023-05-05T07:17:58.512Z,13.05
2023-05-05T07:20:25.350Z,13.18
2023-05-05T07:22:51.815Z,13.17
2023-05-05T07:25:18.399Z,13.24
2023-05-05T07:27:44.910Z,13.20
2023-05-05T07:30:15.389Z,13.29
2023-05-05T07:32:44.055Z,13.33
2023-05-05T07:35:10.762Z,13.39
2023-05-05T07:37:37.175Z,13.40
2023-05-05T07:40:04.152Z,13.49
2023-05-05T07:42:30.577Z,13.67
2023-05-05T07:44:57.017Z,14.03
2023-05-05T07:47:23.483Z,14.38
2023-05-05T07:49:49.890Z,14.69
2023-05-05T07:52:16.413Z,14.71
2023-05-05T07:54:42.849Z,14.66
2023-05-05T07:57:09.267Z,14.67
2023-05-05T07:59:35.925Z,14.57
2023-05-05T08:02:02.341Z,14.42
2023-05-05T08:04:28.810Z,14.37
2023-05-05T08:06:55.239Z,14.32
2023-05-05T08:09:21.721Z,14.32
2023-05-05T08:11:48.274Z,14.36
2023-05-05T08:14:15.349Z,14.43
2023-05-05T08:16:41.809Z,14.48
2023-05-05T08:19:21.065Z,14.59
2023-05-05T08:21:51.613Z,14.64
2023-05-05T08:24:18.066Z,14.64
2023-05-05T08:26:44.663Z,14.37
2023-05-05T08:29:11.549Z,14.36
2023-05-05T08:31:38.054Z,14.44
2023-05-05T08:34:06.012Z,14.34
2023-05-05T08:36:33.034Z,14.30
2023-05-05T08:38:59.810Z,14.36
2023-05-05T08:41:26.704Z,14.34
2023-05-05T08:43:53.223Z,14.27
2023-05-05T08:46:19.929Z,14.31
2023-05-05T08:48:48.408Z,14.38
2023-05-05T08:51:19.905Z,14.39
2023-05-05T08:54:02.039Z,14.48
2023-05-05T08:56:35.012Z,14.42
2023-05-05T08:59:03.184Z,14.59
2023-05-05T09:01:31.860Z,14.75
2023-05-05T09:03:59.486Z,14.99
2023-05-05T09:06:27.306Z,15.07
2023-05-05T09:08:54.446Z,15.16
2023-05-05T09:11:22.549Z,15.44
2023-05-05T09:13:49.634Z,15.57
2023-05-05T09:16:16.275Z,15.69
2023-05-05T09:18:43.006Z,16.05
2023-05-05T09:21:26.388Z,16.27
2023-05-05T09:24:09.632Z,16.53
2023-05-05T09:26:38.733Z,16.50
2023-05-05T09:29:06.028Z,16.43
2023-05-05T09:31:33.977Z,16.34
2023-05-05T09:34:01.178Z,16.43
2023-05-05T09:36:47.336Z,16.37
2023-05-05T09:39:17.933Z,16.32
2023-05-05T09:41:45.369Z,16.58
2023-05-05T09:44:13.094Z,16.66
2023-05-05T09:46:50.994Z,16.46
2023-05-05T09:49:20.079Z,16.38
2023-05-05T09:51:47.480Z,16.27
2023-05-05T09:54:22.932Z,16.34
2023-05-05T09:56:50.681Z,16.39
2023-05-05T09:59:17.059Z,16.29
2023-05-05T10:01:44.038Z,16.36
2023-05-05T10:04:28.497Z,16.30
2023-05-05T10:06:57.234Z,16.30
2023-05-05T10:09:27.512Z,16.28
2023-05-05T10:11:57.044Z,16.34
2023-05-05T10:14:52.415Z,16.60
2023-05-05T10:17:22.257Z,16.67
2023-05-05T10:19:52.144Z,16.60
2023-05-05T10:22:22.781Z,16.68
2023-05-05T10:25:11.829Z,16.70
2023-05-05T10:27:44.120Z,16.44
2023-05-05T10:30:34.244Z,16.40
2023-05-05T10:35:41.676Z,16.41
2023-05-05T10:38:12.849Z,16.53
2023-05-05T10:40:46.888Z,16.48
2023-05-05T10:43:14.397Z,16.45
2023-05-05T10:45:42.974Z,16.55
2023-05-05T10:48:21.048Z,16.77
2023-05-05T10:50:53.813Z,16.86
2023-05-05T10:53:28.000Z,16.81
2023-05-05T10:56:06.865Z,17.05
2023-05-05T10:58:55.394Z,17.12
2023-05-05T11:01:33.151Z,17.44
2023-05-05T11:04:23.325Z,17.88
2023-05-05T11:07:08.007Z,17.97
2023-05-05T11:09:42.079Z,17.96
2023-05-05T11:12:09.108Z,18.11
2023-05-05T11:14:35.692Z,18.18
2023-05-05T11:17:04.081Z,18.53
2023-05-05T11:19:42.708Z,18.80
2023-05-05T11:22:10.603Z,18.82
2023-05-05T11:24:39.553Z,19.12
2023-05-05T11:27:06.556Z,19.40
2023-05-05T11:30:08.061Z,19.50
2023-05-05T11:32:34.884Z,19.41
2023-05-05T11:35:03.776Z,19.47
2023-05-05T11:37:30.297Z,19.50
2023-05-05T11:40:22.026Z,19.48
2023-05-05T11:42:48.477Z,19.34
2023-05-05T11:45:22.919Z,19.34
2023-05-05T11:47:49.781Z,19.39
2023-05-05T11:50:18.749Z,19.21
2023-05-05T11:52:45.662Z,19.05
2023-05-05T11:55:12.161Z,18.97
2023-05-05T11:57:38.674Z,18.98
2023-05-05T12:00:10.401Z,18.86
2023-05-05T12:02:37.248Z,18.72
2023-05-05T12:05:04.079Z,18.71
2023-05-05T12:07:32.301Z,18.60
2023-05-05T12:09:59.471Z,18.90
2023-05-05T12:12:36.583Z,18.88
2023-05-05T12:15:03.793Z,18.77
2023-05-05T12:17:45.760Z,19.00
2023-05-05T12:20:13.312Z,19.11
2023-05-05T12:22:40.299Z,19.35
2023-05-05T12:25:08.185Z,19.32
2023-05-05T12:27:38.449Z,19.69
2023-05-05T12:30:16.580Z,19.86
2023-05-05T12:32:44.369Z,20.04
2023-05-05T12:35:12.109Z,20.02
2023-05-05T12:37:38.886Z,19.84
2023-05-05T12:40:06.477Z,20.23
2023-05-05T12:42:38.732Z,20.31
2023-05-05T12:45:05.744Z,20.27
2023-05-05T12:47:33.278Z,20.58
2023-05-05T12:50:00.636Z,20.71
2023-05-05T12:52:40.730Z,20.94
2023-05-05T12:55:07.957Z,20.88
2023-05-05T12:57:34.679Z,20.87
2023-05-05T13:00:13.558Z,20.86
2023-05-05T13:02:40.070Z,21.01
2023-05-05T13:05:07.157Z,20.48
2023-05-05T13:07:33.696Z,20.23
2023-05-05T13:10:09.087Z,20.36
2023-05-05T13:12:35.585Z,20.44
2023-05-05T13:15:03.980Z,20.65
2023-05-05T13:17:31.467Z,20.70
2023-05-05T13:19:59.226Z,20.77
2023-05-05T13:22:25.595Z,20.88
2023-05-05T13:24:52.956Z,21.13
2023-05-05T13:27:19.974Z,21.03
2023-05-05T13:29:46.688Z,20.71
2023-05-05T13:32:13.247Z,20.59
2023-05-05T13:34:39.724Z,20.69
2023-05-05T13:37:06.267Z,20.59
2023-05-05T13:39:32.720Z,20.64
2023-05-05T13:41:59.139Z,20.69
2023-05-05T13:44:25.594Z,20.62
2023-05-05T13:46:52.008Z,20.66
2023-05-05T13:49:18.586Z,20.89
2023-05-05T13:51:46.753Z,20.91
2023-05-05T13:54:13.477Z,20.81
2023-05-05T13:56:39.901Z,20.79
2023-05-05T13:59:06.378Z,20.67
2023-05-05T14:01:33.029Z,20.61
2023-05-05T14:03:59.777Z,20.25
2023-05-05T14:06:27.739Z,20.42
2023-05-05T14:08:54.143Z,20.36
2023-05-05T14:11:20.969Z,20.36
2023-05-05T14:13:47.956Z,20.41
2023-05-05T14:16:14.580Z,20.24
2023-05-05T14:18:41.072Z,20.18
2023-05-05T14:21:07.513Z,20.23
2023-05-05T14:23:34.021Z,20.27
2023-05-05T14:26:01.052Z,20.16
2023-05-05T14:28:27.497Z,20.01
2023-05-05T14:30:53.939Z,19.91
2023-05-05T14:33:20.416Z,19.77
2023-05-05T14:35:47.079Z,19.77
2023-05-05T14:38:13.614Z,19.62
2023-05-05T14:40:39.995Z,19.55
2023-05-05T14:43:06.594Z,19.62
2023-05-05T14:45:33.285Z,19.44
2023-05-05T14:47:59.735Z,19.42
2023-05-05T14:50:26.219Z,19.25
2023-05-05T14:52:52.662Z,19.25
2023-05-05T14:55:19.262Z,19.27
2023-05-05T14:57:45.821Z,19.17
2023-05-05T15:00:13.291Z,19.07
2023-05-05T15:02:39.860Z,19.01
2023-05-05T15:05:07.276Z,18.88
2023-05-05T15:07:33.850Z,18.82
2023-05-05T15:10:00.308Z,18.88
2023-05-05T15:12:27.866Z,18.83
2023-05-05T15:14:55.398Z,18.71
2023-05-05T15:17:21.946Z,18.60
2023-05-05T15:19:48.433Z,18.69
2023-05-05T15:22:15.006Z,18.56
2023-05-05T15:24:41.459Z,18.45
2023-05-05T15:27:08.194Z,18.33
2023-05-05T15:29:34.641Z,18.25
2023-05-05T15:32:01.950Z,18.18
2023-05-05T15:34:28.412Z,18.05
2023-05-05T15:36:55.174Z,18.02
2023-05-05T15:39:21.548Z,17.98
2023-05-05T15:41:48.012Z,17.86
2023-05-05T15:44:14.576Z,17.82
2023-05-05T15:46:41.120Z,17.85
2023-05-05T15:49:07.639Z,17.77
2023-05-05T15:51:34.102Z,17.72
2023-05-05T15:54:00.571Z,17.63
2023-05-05T15:56:27.497Z,17.51
2023-05-05T15:58:54.317Z,17.47
2023-05-05T16:01:20.979Z,17.44
2023-05-05T16:03:47.481Z,17.37
2023-05-05T16:06:14.413Z,17.28
2023-05-05T16:08:42.282Z,17.27
2023-05-05T16:11:09.484Z,17.05
2023-05-05T16:13:35.876Z,16.83
2023-05-05T16:16:03.588Z,16.49
2023-05-05T16:18:30.034Z,15.97
2023-05-05T16:20:56.398Z,15.43
2023-05-05T16:23:22.892Z,15.29
2023-05-05T16:25:49.365Z,14.82
2023-05-05T16:28:15.897Z,14.82
2023-05-05T16:30:43.219Z,14.57
2023-05-05T16:33:10.023Z,14.51
2023-05-05T16:35:36.606Z,14.30
2023-05-05T16:38:03.577Z,14.10
2023-05-05T16:40:30.065Z,14.02
2023-05-05T16:42:59.234Z,13.98
2023-05-05T16:45:25.657Z,13.77
2023-05-05T16:47:52.736Z,13.67
2023-05-05T16:50:19.343Z,13.59
2023-05-05T16:52:45.935Z,13.48
2023-05-05T16:55:12.763Z,13.45
2023-05-05T16:57:39.228Z,13.49
2023-05-05T17:00:06.853Z,13.42
2023-05-05T17:04:59.808Z,13.32
2023-05-05T17:07:26.322Z,13.34
2023-05-05T17:09:52.715Z,13.33
2023-05-05T17:12:19.180Z,13.33
2023-05-05T17:14:45.995Z,13.33
2023-05-05T17:17:12.930Z,13.29
2023-05-05T17:19:39.499Z,13.37
2023-05-05T17:22:06.020Z,13.20
2023-05-05T17:24:32.493Z,13.28
2023-05-05T17:27:00.054Z,13.31
2023-05-05T17:29:27.758Z,13.26
2023-05-05T17:31:55.216Z,13.33
2023-05-05T17:34:21.954Z,13.30
2023-05-05T17:36:48.369Z,13.28
2023-05-05T17:39:14.986Z,13.30
2023-05-05T17:41:42.398Z,13.31
2023-05-05T17:44:08.800Z,13.34
2023-05-05T17:46:35.366Z,13.36
2023-05-05T17:49:02.699Z,13.43
2023-05-05T17:51:29.146Z,13.38
2023-05-05T17:53:55.670Z,13.41
2023-05-05T17:56:22.255Z,13.50
2023-05-05T17:58:48.944Z,13.47
2023-05-05T18:01:26.318Z,13.44
2023-05-05T18:03:52.885Z,13.50
2023-05-05T18:06:19.485Z,13.51
2023-05-05T18:08:46.571Z,13.52
2023-05-05T18:11:13.252Z,13.47
2023-05-05T18:13:39.877Z,13.47
2023-05-05T18:16:06.744Z,13.48
2023-05-05T18:18:33.312Z,13.42
2023-05-05T18:20:59.927Z,13.40
2023-05-05T18:23:26.645Z,13.40
2023-05-05T18:25:53.100Z,13.37
2023-05-05T18:28:20.262Z,13.41
2023-05-05T18:30:46.727Z,13.38
2023-05-05T18:33:13.508Z,13.47
2023-05-05T18:35:39.976Z,13.43
2023-05-05T18:38:06.482Z,13.33
2023-05-05T18:40:32.950Z,13.34
2023-05-05T18:42:59.479Z,13.37
2023-05-05T18:45:25.917Z,13.32
2023-05-05T18:47:52.412Z,13.29
2023-05-05T18:50:18.998Z,13.29
2023-05-05T18:52:45.714Z,13.27
2023-05-05T18:55:12.632Z,13.27
2023-05-05T18:57:39.172Z,13.31
2023-05-05T19:00:06.735Z,13.34
2023-05-05T19:02:33.266Z,13.35
2023-05-05T19:04:59.803Z,13.39
2023-05-05T19:07:35.101Z,13.40
2023-05-05T19:10:04.382Z,13.43
2023-05-05T19:12:30.819Z,13.45
2023-05-05T19:14:57.630Z,13.44
2023-05-05T19:17:25.048Z,13.47
2023-05-05T19:19:51.555Z,13.49
2023-05-05T19:22:18.082Z,13.45
2023-05-05T19:24:44.841Z,13.47
2023-05-05T19:27:16.201Z,13.45
2023-05-05T19:29:43.621Z,13.43
2023-05-05T19:32:10.144Z,13.46
2023-05-05T19:34:36.932Z,13.46
2023-05-05T19:37:03.346Z,13.33
2023-05-05T19:39:29.782Z,13.30
2023-05-05T19:41:56.473Z,13.29
2023-05-05T19:44:23.237Z,13.29
2023-05-05T19:46:49.998Z,13.33
2023-05-05T19:49:16.454Z,13.34
2023-05-05T19:51:43.745Z,13.37
2023-05-05T19:54:10.299Z,13.37
2023-05-05T19:56:36.749Z,13.38
2023-05-05T19:59:05.225Z,13.36
2023-05-05T20:01:33.028Z,13.34
2023-05-05T20:03:59.863Z,13.34
2023-05-05T20:06:26.898Z,13.37
2023-05-05T20:08:54.690Z,13.31
2023-05-05T20:11:21.438Z,13.28
2023-05-05T20:13:49.121Z,13.31
2023-05-05T20:16:15.904Z,13.25
2023-05-05T20:18:42.448Z,13.22
2023-05-05T20:21:08.865Z,13.23
2023-05-05T20:23:36.519Z,13.24
2023-05-05T20:26:03.048Z,13.25
2023-05-05T20:28:31.655Z,13.29
2023-05-05T20:30:58.229Z,13.30
2023-05-05T20:33:24.715Z,13.25
2023-05-05T20:35:51.115Z,13.19
2023-05-05T20:38:17.888Z,13.21
2023-05-05T20:40:44.505Z,13.21
2023-05-05T20:43:11.222Z,13.26
2023-05-05T20:45:37.808Z,13.14
2023-05-05T20:48:05.072Z,13.04
2023-05-05T20:50:31.743Z,13.05
2023-05-05T20:52:58.716Z,13.05
2023-05-05T20:55:25.639Z,13.03
2023-05-05T20:57:52.032Z,13.03
2023-05-05T21:00:18.533Z,13.01
2023-05-05T21:02:45.236Z,13.01
2023-05-05T21:05:11.793Z,13.04
2023-05-05T21:07:38.552Z,13.05
2023-05-05T21:10:05.712Z,13.03
2023-05-05T21:12:33.863Z,13.00
2023-05-05T21:15:00.671Z,12.98
2023-05-05T21:17:29.618Z,12.95
2023-05-05T21:19:56.947Z,12.90
2023-05-05T21:22:23.642Z,12.89
2023-05-05T21:24:50.753Z,12.91
2023-05-05T21:27:17.731Z,12.91
2023-05-05T21:29:44.242Z,12.93
2023-05-05T21:32:11.679Z,12.90
2023-05-05T21:34:39.072Z,12.89
2023-05-05T21:37:06.087Z,12.86
2023-05-05T21:39:33.164Z,12.88
2023-05-05T21:42:01.046Z,12.86
2023-05-05T21:44:28.151Z,12.86
2023-05-05T21:46:55.378Z,12.89
2023-05-05T21:49:21.861Z,12.83
2023-05-05T21:51:48.308Z,12.81
2023-05-05T21:54:14.878Z,12.76
2023-05-05T21:56:41.259Z,12.69
2023-05-05T21:59:07.700Z,12.70
2023-05-05T22:01:34.149Z,12.65
2023-05-05T22:04:00.687Z,12.59
2023-05-05T22:06:27.229Z,12.51
2023-05-05T22:08:53.647Z,12.47
2023-05-05T22:11:20.338Z,12.48
2023-05-05T22:14:11.533Z,12.44
2023-05-05T22:16:38.073Z,12.41
2023-05-05T22:19:04.554Z,12.38
2023-05-05T22:21:31.492Z,12.37
2023-05-05T22:23:57.881Z,12.37
2023-05-05T22:26:24.343Z,12.41
2023-05-05T22:28:51.014Z,12.30
2023-05-05T22:31:17.698Z,12.25
2023-05-05T22:33:44.151Z,12.26
2023-05-05T22:36:11.498Z,12.18
2023-05-05T22:38:37.924Z,12.21
2023-05-05T22:41:06.362Z,12.18
2023-05-05T22:43:32.826Z,12.22
2023-05-05T22:45:59.210Z,12.21
2023-05-05T22:48:26.210Z,12.20
2023-05-05T22:50:52.625Z,12.21
2023-05-05T22:53:19.132Z,12.26
2023-05-05T22:55:45.899Z,12.25
2023-05-05T22:58:12.447Z,12.20
2023-05-05T23:00:38.836Z,12.18
2023-05-05T23:03:05.332Z,12.22
2023-05-05T23:05:31.920Z,12.05
2023-05-05T23:08:01.021Z,12.03
2023-05-05T23:10:28.911Z,11.95
2023-05-05T23:12:55.600Z,12.00
2023-05-05T23:15:22.692Z,12.03
2023-05-05T23:17:49.260Z,12.03
2023-05-05T23:20:16.236Z,12.08
2023-05-05T23:22:42.696Z,12.13
2023-05-05T23:25:09.430Z,12.13
2023-05-05T23:27:38.982Z,12.16
2023-05-05T23:30:07.300Z,12.18
2023-05-05T23:32:33.864Z,12.17
2023-05-05T23:35:00.294Z,12.16
2023-05-05T23:37:27.877Z,12.18
2023-05-05T23:39:54.454Z,12.23
2023-05-05T23:42:21.051Z,12.13
2023-05-05T23:44:47.759Z,12.11
2023-05-05T23:47:14.183Z,12.14
2023-05-05T23:49:40.657Z,12.09
2023-05-05T23:52:07.067Z,12.10
2023-05-05T23:54:33.480Z,12.02
2023-05-05T23:57:00.237Z,12.10
2023-05-05T23:59:27.178Z,11.99
